Time;durP1;ratioP1;P1;durP2;ratioP2;P2;SDS_P1;SDS_P2;PMS_P1;PMS_P2;Temp;Humidity;BMP_temperature;BMP_pressure;BME280_temperature;BME280_humidity;BME280_pressure;Samples;Min_cycle;Max_cycle;Signal;HPM_P1;HPM_P2
2023/11/03 00:01:58;;;;;;;13.30;9.40;;;;;;;6.87;95.85;96930.80;108493;1268;73700;-85
2023/11/03 00:04:25;;;;;;;11.80;9.90;;;;;;;6.87;95.91;96923.36;108521;1268;72411;-84
2023/11/03 00:06:53;;;;;;;15.30;9.50;;;;;;;6.87;95.91;96919.27;108660;1262;72445;-85
2023/11/03 00:09:23;;;;;;;13.30;9.80;;;;;;;6.84;95.95;96916.27;108584;1264;59969;-85
2023/11/03 00:11:51;;;;;;;11.80;10.30;;;;;;;6.83;95.90;96907.68;108483;1263;59477;-85
2023/11/03 00:14:18;;;;;;;14.40;9.60;;;;;;;6.82;95.92;96904.71;108618;1263;72598;-84
2023/11/03 00:16:45;;;;;;;12.00;8.90;;;;;;;6.80;95.62;96894.86;108480;1263;74231;-84
2023/11/03 00:19:14;;;;;;;13.30;8.40;;;;;;;6.79;95.27;96895.67;108636;1263;72540;-84
2023/11/03 00:21:43;;;;;;;10.70;8.60;;;;;;;6.79;94.98;96893.54;108630;1263;62029;-84
2023/11/03 00:24:11;;;;;;;11.40;7.70;;;;;;;6.78;94.42;96885.77;108890;1262;59201;-84
2023/11/03 00:26:38;;;;;;;11.30;8.40;;;;;;;6.79;94.13;96887.48;108918;1263;71840;-85
2023/11/03 00:29:07;;;;;;;11.80;8.70;;;;;;;6.81;93.81;96892.89;108908;1262;74279;-87
2023/11/03 00:31:37;;;;;;;10.40;8.50;;;;;;;6.80;93.63;96884.53;108868;1264;70376;-84
2023/11/03 00:34:05;;;;;;;10.80;8.40;;;;;;;6.81;93.56;96877.90;108775;1264;59624;-84
2023/11/03 00:36:32;;;;;;;11.10;8.70;;;;;;;6.81;93.39;96881.29;108734;1264;59410;-84
2023/11/03 00:39:00;;;;;;;12.80;8.30;;;;;;;6.81;93.40;96876.50;108506;1264;72643;-84
2023/11/03 00:41:29;;;;;;;13.80;8.50;;;;;;;6.82;93.27;96879.80;108629;1263;73521;-84
2023/11/03 00:43:56;;;;;;;10.00;7.70;;;;;;;6.81;93.44;96869.73;108620;1264;72362;-84
2023/11/03 00:46:23;;;;;;;11.70;9.00;;;;;;;6.79;93.53;96875.07;108615;1262;61036;-84
2023/11/03 00:48:50;;;;;;;12.40;8.70;;;;;;;6.77;93.75;96874.87;108628;1263;58942;-84
2023/11/03 00:51:17;;;;;;;10.60;9.40;;;;;;;6.74;93.93;96872.19;108644;1263;73723;-85
2023/11/03 00:53:45;;;;;;;13.30;9.80;;;;;;;6.73;94.09;96871.61;108822;1262;74305;-84
2023/11/03 00:56:13;;;;;;;12.80;9.60;;;;;;;6.69;94.21;96870.27;108730;1263;71447;-83
2023/11/03 00:58:41;;;;;;;10.90;9.00;;;;;;;6.67;94.38;96865.50;108636;1262;61996;-84
2023/11/03 01:01:08;;;;;;;11.30;8.80;;;;;;;6.65;94.52;96869.77;108570;1263;59700;-83
2023/11/03 01:03:35;;;;;;;10.80;9.10;;;;;;;6.62;94.85;96867.48;108652;1264;73836;-84
2023/11/03 01:06:03;;;;;;;11.70;8.90;;;;;;;6.60;95.00;96869.06;108630;1262;74523;-84
2023/11/03 01:08:30;;;;;;;17.00;10.40;;;;;;;6.59;95.13;96864.36;108608;1262;73360;-84
2023/11/03 01:10:57;;;;;;;12.20;9.40;;;;;;;6.58;95.24;96872.98;108466;1262;59976;-84
2023/11/03 01:13:24;;;;;;;13.40;9.90;;;;;;;6.56;95.25;96872.92;108402;1263;59827;-85
2023/11/03 01:15:52;;;;;;;10.90;9.10;;;;;;;6.53;95.32;96868.69;108656;1262;73909;-84
2023/11/03 01:18:19;;;;;;;12.40;9.40;;;;;;;6.53;95.64;96867.67;108609;1262;73132;-85
2023/11/03 01:20:51;;;;;;;14.90;10.00;;;;;;;6.51;95.71;96866.70;108652;1262;71425;-84
2023/11/03 01:23:19;;;;;;;14.20;11.00;;;;;;;6.51;95.84;96866.70;108419;1263;60971;-84
2023/11/03 01:25:46;;;;;;;12.50;9.60;;;;;;;6.51;96.05;96869.52;108614;1264;60266;-84
2023/11/03 01:28:13;;;;;;;12.20;10.20;;;;;;;6.52;95.95;96872.51;108776;1262;72631;-82
2023/11/03 01:30:40;;;;;;;15.80;11.00;;;;;;;6.53;96.09;96868.92;108770;1262;72894;-83
2023/11/03 01:33:07;;;;;;;13.10;10.20;;;;;;;6.53;96.18;96864.11;108670;1263;71493;-83
2023/11/03 01:35:37;;;;;;;15.30;10.10;;;;;;;6.54;96.02;96868.30;108599;1266;60163;-84
2023/11/03 01:38:04;;;;;;;14.50;10.20;;;;;;;6.55;96.07;96868.73;108586;1262;60587;-84
2023/11/03 01:40:31;;;;;;;11.90;9.50;;;;;;;6.57;96.22;96863.61;108638;1264;73370;-83
2023/11/03 01:42:58;;;;;;;11.50;9.90;;;;;;;6.58;96.13;96871.72;108275;1264;73228;-84
2023/11/03 01:45:25;;;;;;;16.10;10.90;;;;;;;6.59;95.93;96868.45;108600;1262;72867;-83
2023/11/03 01:47:52;;;;;;;15.60;10.80;;;;;;;6.60;95.79;96867.98;108630;1263;60017;-83
2023/11/03 01:50:19;;;;;;;17.30;9.20;;;;;;;6.62;95.79;96856.45;108652;1263;58860;-84
2023/11/03 01:52:46;;;;;;;15.60;11.40;;;;;;;6.65;95.83;96860.35;108656;1262;73679;-83
2023/11/03 01:55:13;;;;;;;15.50;10.60;;;;;;;6.66;95.83;96855.83;108611;1263;75076;-84
2023/11/03 01:57:40;;;;;;;12.90;10.80;;;;;;;6.67;95.73;96864.38;108562;1264;71641;-83
2023/11/03 02:00:08;;;;;;;11.70;10.10;;;;;;;6.69;95.90;96848.65;108611;1262;59984;-83
2023/11/03 02:02:35;;;;;;;15.70;11.80;;;;;;;6.70;96.39;96845.71;108645;1262;59012;-83
2023/11/03 02:05:02;;;;;;;14.60;11.10;;;;;;;6.72;96.48;96848.57;108603;1263;72619;-84
2023/11/03 02:07:30;;;;;;;14.70;11.10;;;;;;;6.73;96.34;96850.42;108655;1262;74413;-83
2023/11/03 02:09:57;;;;;;;16.10;12.50;;;;;;;6.75;96.20;96841.03;108897;1263;71112;-84
2023/11/03 02:12:24;;;;;;;15.70;10.90;;;;;;;6.75;96.08;96842.29;108829;1263;60391;-84
2023/11/03 02:14:54;;;;;;;14.00;11.30;;;;;;;6.76;96.07;96827.98;108796;1262;59112;-84
2023/11/03 02:17:21;;;;;;;15.30;11.60;;;;;;;6.76;96.21;96836.86;108585;1263;72567;-84
2023/11/03 02:19:48;;;;;;;17.70;11.90;;;;;;;6.77;96.05;96836.59;108603;1262;73244;-84
2023/11/03 02:22:15;;;;;;;13.30;11.20;;;;;;;6.77;96.13;96841.75;108548;1262;72717;-84
2023/11/03 02:24:43;;;;;;;13.60;10.80;;;;;;;6.78;96.10;96831.04;108666;1263;61192;-84
2023/11/03 02:27:10;;;;;;;18.60;11.80;;;;;;;6.79;96.21;96828.06;108602;1264;59095;-84
2023/11/03 02:29:37;;;;;;;12.90;11.00;;;;;;;6.80;96.00;96824.95;108750;1263;73101;-83
2023/11/03 02:32:04;;;;;;;15.10;11.80;;;;;;;6.82;96.07;96824.12;108636;1263;72852;-84
2023/11/03 02:34:31;;;;;;;19.30;12.80;;;;;;;6.82;95.93;96826.20;108587;1262;72572;-84
2023/11/03 02:36:59;;;;;;;18.80;12.40;;;;;;;6.83;95.91;96825.27;108627;1262;61103;-84
2023/11/03 02:39:25;;;;;;;17.50;12.50;;;;;;;6.83;95.92;96818.83;108620;1262;60277;-84
2023/11/03 02:41:52;;;;;;;18.80;11.20;;;;;;;6.84;96.26;96817.50;108062;1263;72235;-84
2023/11/03 02:44:19;;;;;;;15.30;13.00;;;;;;;6.84;95.94;96816.84;108642;1262;73134;-84
2023/11/03 02:46:46;;;;;;;14.90;10.90;;;;;;;6.84;96.03;96816.85;108604;1262;71609;-84
2023/11/03 02:49:14;;;;;;;14.40;10.60;;;;;;;6.84;95.99;96811.67;108629;1262;59570;-84
2023/11/03 02:51:41;;;;;;;15.00;11.50;;;;;;;6.85;96.03;96801.77;108625;1262;60261;-84
2023/11/03 02:54:08;;;;;;;16.30;11.30;;;;;;;6.86;95.96;96803.86;108719;1262;73766;-84
2023/11/03 02:56:35;;;;;;;17.40;11.30;;;;;;;6.87;95.96;96805.55;108656;1262;73030;-84
2023/11/03 02:59:02;;;;;;;12.90;10.90;;;;;;;6.88;95.99;96809.03;108555;1263;72833;-84
2023/11/03 03:01:30;;;;;;;20.30;10.70;;;;;;;6.90;95.84;96805.52;108610;1262;60886;-84
2023/11/03 03:03:58;;;;;;;14.70;11.00;;;;;;;6.92;95.67;96807.30;108606;1262;59049;-84
2023/11/03 03:06:25;;;;;;;14.20;11.00;;;;;;;6.93;95.54;96804.54;108642;1262;72838;-84
2023/11/03 03:08:52;;;;;;;14.10;11.10;;;;;;;6.96;95.43;96799.19;108627;1263;74441;-84
2023/11/03 03:11:19;;;;;;;15.10;11.20;;;;;;;6.96;95.13;96790.10;108507;1262;71462;-84
2023/11/03 03:13:46;;;;;;;13.30;11.60;;;;;;;6.97;95.12;96788.75;108603;1262;59894;-83
2023/11/03 03:16:16;;;;;;;14.30;10.90;;;;;;;6.96;94.85;96785.84;108610;1262;59266;-84
2023/11/03 03:18:44;;;;;;;14.00;11.40;;;;;;;6.93;94.93;96778.93;108545;1262;72644;-85
2023/11/03 03:21:11;;;;;;;16.20;11.90;;;;;;;6.90;94.91;96776.86;108629;1263;74342;-85
2023/11/03 03:23:38;;;;;;;14.30;11.00;;;;;;;6.87;95.00;96772.98;108602;1262;73892;-84
2023/11/03 03:26:05;;;;;;;13.10;11.60;;;;;;;6.84;95.14;96770.00;108519;1262;60015;-85
2023/11/03 03:28:33;;;;;;;14.20;10.70;;;;;;;6.83;95.17;96769.92;108648;1262;58916;-85
2023/11/03 03:31:00;;;;;;;16.90;11.40;;;;;;;6.82;95.31;96765.58;108491;1262;73754;-85
2023/11/03 03:33:27;;;;;;;13.50;10.80;;;;;;;6.82;95.42;96766.50;108602;1262;74265;-84
2023/11/03 03:35:54;;;;;;;15.90;11.50;;;;;;;6.82;95.38;96766.47;108632;1262;72189;-84
2023/11/03 03:38:21;;;;;;;14.30;11.10;;;;;;;6.83;95.55;96764.41;108473;1263;61936;-84
2023/11/03 03:40:48;;;;;;;14.30;11.00;;;;;;;6.85;95.72;96753.25;108619;1262;58994;-84
2023/11/03 03:43:15;;;;;;;13.90;10.50;;;;;;;6.86;96.09;96747.44;108644;1262;73539;-85
2023/11/03 03:45:44;;;;;;;15.40;11.40;;;;;;;6.87;96.10;96748.05;108640;1263;74000;-85
2023/11/03 03:48:11;;;;;;;13.20;10.90;;;;;;;6.89;95.79;96742.06;108620;1262;72534;-85
2023/11/03 03:50:38;;;;;;;16.80;11.80;;;;;;;6.90;95.69;96739.33;108545;1262;59751;-85
2023/11/03 03:53:05;;;;;;;19.00;12.30;;;;;;;6.91;95.74;96738.02;108624;1262;61197;-85
2023/11/03 03:55:33;;;;;;;13.50;10.40;;;;;;;6.92;95.79;96739.55;108642;1262;72606;-85
2023/11/03 03:57:59;;;;;;;13.70;11.30;;;;;;;6.93;95.55;96745.48;108611;1262;74276;-84
2023/11/03 04:00:27;;;;;;;13.90;11.20;;;;;;;6.95;95.60;96737.52;108611;1262;71671;-84
2023/11/03 04:02:54;;;;;;;13.90;11.90;;;;;;;6.97;95.56;96740.52;108600;1262;61980;-83
2023/11/03 04:05:21;;;;;;;16.20;11.40;;;;;;;6.99;95.68;96732.56;108654;1262;60254;-84
2023/11/03 04:07:48;;;;;;;14.50;11.30;;;;;;;7.01;95.51;96725.46;108637;1262;74481;-84
2023/11/03 04:10:15;;;;;;;15.20;11.70;;;;;;;7.03;95.41;96727.58;108643;1262;74388;-84
2023/11/03 04:12:42;;;;;;;15.80;11.10;;;;;;;7.05;95.13;96726.36;108628;1262;73447;-84
2023/11/03 04:15:09;;;;;;;14.90;12.20;;;;;;;7.07;95.13;96719.29;108536;1262;60214;-83
2023/11/03 04:17:36;;;;;;;22.10;12.60;;;;;;;7.09;95.39;96713.97;108619;1262;59259;-83
2023/11/03 04:20:04;;;;;;;19.40;12.50;;;;;;;7.12;95.63;96713.13;108528;1262;72219;-84
2023/11/03 04:22:31;;;;;;;16.60;12.90;;;;;;;7.15;95.47;96712.20;108659;1262;74829;-84
2023/11/03 04:24:58;;;;;;;16.90;12.80;;;;;;;7.17;95.57;96717.00;108535;1262;72031;-84
2023/11/03 04:27:25;;;;;;;19.30;12.70;;;;;;;7.19;95.81;96715.04;108637;1262;59528;-84
2023/11/03 04:29:52;;;;;;;16.90;12.90;;;;;;;7.22;95.63;96717.65;108573;1263;60098;-83
2023/11/03 04:32:19;;;;;;;16.50;12.90;;;;;;;7.24;95.77;96718.55;108565;1263;74533;-83
2023/11/03 04:34:46;;;;;;;14.80;12.80;;;;;;;7.27;96.12;96715.10;108588;1263;74396;-83
2023/11/03 04:37:13;;;;;;;15.70;12.90;;;;;;;7.30;96.20;96706.92;108697;1263;70780;-82
2023/11/03 04:39:40;;;;;;;16.60;13.10;;;;;;;7.32;96.45;96701.04;108809;1263;58895;-83
2023/11/03 04:42:08;;;;;;;17.20;14.40;;;;;;;7.34;96.46;96699.26;108778;1263;59465;-81
2023/11/03 04:44:35;;;;;;;17.30;14.40;;;;;;;7.35;96.10;96698.59;108863;1263;73082;-82
2023/11/03 04:47:02;;;;;;;15.20;13.60;;;;;;;7.37;95.95;96703.27;108818;1262;74001;-82
2023/11/03 04:49:30;;;;;;;20.80;15.30;;;;;;;7.37;95.88;96698.48;108879;1262;71602;-83
2023/11/03 04:51:57;;;;;;;36.00;24.10;;;;;;;7.37;95.79;96688.99;108804;1262;61015;-83
2023/11/03 04:54:24;;;;;;;27.30;20.70;;;;;;;7.37;95.85;96690.82;108795;1262;59006;-84
2023/11/03 04:56:51;;;;;;;34.60;23.30;;;;;;;7.35;95.86;96698.26;108737;1262;72668;-84
2023/11/03 04:59:19;;;;;;;28.50;20.60;;;;;;;7.33;95.79;96697.52;108773;1262;73105;-84
2023/11/03 05:01:54;;;;;;;26.10;18.00;;;;;;;7.31;95.73;96697.34;108722;1262;71190;-86
2023/11/03 05:04:22;;;;;;;28.20;19.30;;;;;;;7.29;95.89;96698.65;108660;1262;58900;-84
2023/11/03 05:06:49;;;;;;;41.30;29.10;;;;;;;7.27;96.00;96703.23;108644;1262;59286;-85
2023/11/03 05:09:17;;;;;;;33.20;24.60;;;;;;;7.24;96.11;96699.31;108676;1262;71754;-84
2023/11/03 05:11:45;;;;;;;30.00;21.60;;;;;;;7.22;96.02;96689.17;108648;1262;72957;-83
2023/11/03 05:14:12;;;;;;;19.60;16.00;;;;;;;7.21;96.36;96682.31;108639;1262;72309;-85
2023/11/03 05:16:39;;;;;;;16.30;14.50;;;;;;;7.19;96.18;96673.73;108637;1262;60816;-83
2023/11/03 05:19:06;;;;;;;16.00;13.80;;;;;;;7.18;96.23;96678.83;108748;1262;59075;-82
2023/11/03 05:21:33;;;;;;;14.50;11.00;;;;;;;7.17;96.36;96670.67;108744;1262;74229;-83
2023/11/03 05:24:00;;;;;;;14.60;12.60;;;;;;;7.17;96.55;96667.16;108667;1262;72925;-83
2023/11/03 05:26:27;;;;;;;14.30;12.20;;;;;;;7.17;96.77;96656.14;108833;1262;72565;-83
2023/11/03 05:28:56;;;;;;;12.40;10.90;;;;;;;7.17;96.70;96652.39;108902;1262;59293;-84
2023/11/03 05:31:27;;;;;;;14.20;11.90;;;;;;;7.17;96.84;96645.45;108848;1262;59196;-84
2023/11/03 05:33:55;;;;;;;13.60;11.70;;;;;;;7.17;96.78;96656.09;108579;1262;73585;-85
2023/11/03 05:36:22;;;;;;;14.10;12.30;;;;;;;7.17;96.75;96655.08;108630;1262;74475;-84
2023/11/03 05:38:49;;;;;;;14.80;13.10;;;;;;;7.16;96.66;96660.11;108579;1262;72100;-85
2023/11/03 05:41:16;;;;;;;12.70;11.20;;;;;;;7.15;96.85;96653.42;108602;1262;61118;-84
2023/11/03 05:43:43;;;;;;;13.20;11.30;;;;;;;7.14;96.60;96645.14;108640;1262;59110;-85
2023/11/03 05:46:10;;;;;;;13.80;12.10;;;;;;;7.14;96.76;96655.16;108630;1262;73958;-84
2023/11/03 05:48:37;;;;;;;13.90;12.10;;;;;;;7.14;96.63;96656.23;108653;1262;74077;-84
2023/11/03 05:51:05;;;;;;;17.50;11.50;;;;;;;7.13;96.40;96653.27;108530;1262;72813;-84
2023/11/03 05:53:32;;;;;;;15.40;12.20;;;;;;;7.11;96.34;96648.30;108604;1262;59632;-84
2023/11/03 05:56:00;;;;;;;12.90;11.50;;;;;;;7.09;96.09;96651.83;108564;1262;59052;-84
2023/11/03 05:58:27;;;;;;;15.90;12.40;;;;;;;7.08;96.18;96653.52;108542;1262;72655;-83
2023/11/03 06:00:54;;;;;;;12.50;11.10;;;;;;;7.07;96.05;96641.66;108535;1262;73433;-85
2023/11/03 06:03:21;;;;;;;11.60;10.40;;;;;;;7.06;96.23;96637.27;108627;1262;72356;-84
2023/11/03 06:05:48;;;;;;;12.50;10.30;;;;;;;7.05;96.16;96628.62;108587;1262;59622;-84
2023/11/03 06:08:15;;;;;;;11.20;10.10;;;;;;;7.05;96.30;96633.45;108517;1262;59035;-85
2023/11/03 06:10:42;;;;;;;13.00;10.80;;;;;;;7.07;96.17;96639.91;108489;1262;73699;-84
2023/11/03 06:13:09;;;;;;;12.60;10.10;;;;;;;7.07;96.32;96628.70;108604;1262;74370;-84
2023/11/03 06:15:37;;;;;;;12.30;11.00;;;;;;;7.08;96.13;96628.61;108434;1262;72660;-84
2023/11/03 06:18:04;;;;;;;14.20;10.90;;;;;;;7.08;95.86;96627.70;108593;1262;59439;-85
2023/11/03 06:20:33;;;;;;;14.00;12.50;;;;;;;7.08;95.73;96624.14;108588;1262;59484;-85
2023/11/03 06:23:01;;;;;;;14.30;11.90;;;;;;;7.08;95.97;96615.45;108661;1262;72101;-85
2023/11/03 06:25:29;;;;;;;16.40;10.20;;;;;;;7.07;95.97;96600.02;108666;1263;72955;-84
2023/11/03 06:27:58;;;;;;;12.50;10.80;;;;;;;7.07;96.10;96599.88;108477;1264;71502;-86
2023/11/03 06:30:27;;;;;;;12.30;10.60;;;;;;;7.08;96.17;96601.57;108375;1263;60499;-84
2023/11/03 06:32:54;;;;;;;12.60;10.50;;;;;;;7.08;96.34;96598.36;108596;1263;59032;-84
2023/11/03 06:35:22;;;;;;;15.10;13.50;;;;;;;7.09;96.39;96600.23;108596;1263;74660;-83
2023/11/03 06:37:50;;;;;;;13.70;12.10;;;;;;;7.10;96.34;96597.80;108802;1263;73292;-85
2023/11/03 06:40:17;;;;;;;13.20;11.80;;;;;;;7.12;96.36;96600.50;108621;1267;72538;-84
2023/11/03 06:42:45;;;;;;;12.90;11.70;;;;;;;7.13;96.18;96604.45;108559;1267;59955;-83
2023/11/03 06:45:12;;;;;;;14.10;12.20;;;;;;;7.15;96.05;96609.48;108602;1267;58514;-83
2023/11/03 06:47:39;;;;;;;12.60;11.10;;;;;;;7.17;95.82;96610.23;108548;1267;71521;-84
2023/11/03 06:50:09;;;;;;;10.80;9.70;;;;;;;7.19;95.76;96618.96;108303;1266;75767;-83
2023/11/03 06:52:36;;;;;;;10.70;9.70;;;;;;;7.20;95.69;96619.14;108263;1266;72402;-86
2023/11/03 06:55:04;;;;;;;9.80;8.10;;;;;;;7.23;95.82;96618.94;108169;1267;61209;-84
2023/11/03 06:57:31;;;;;;;12.90;11.50;;;;;;;7.25;95.60;96606.52;108367;1265;60273;-84
2023/11/03 07:00:02;;;;;;;12.80;10.70;;;;;;;7.28;95.87;96595.23;108256;1266;73751;-89
2023/11/03 07:02:31;;;;;;;13.40;9.60;;;;;;;7.31;95.87;96584.16;108152;1267;74352;-86
2023/11/03 07:05:00;;;;;;;10.90;9.80;;;;;;;7.31;95.87;96574.69;108328;1266;72084;-87
2023/11/03 07:07:27;;;;;;;14.50;11.30;;;;;;;7.32;95.88;96571.02;108127;1266;59240;-86
2023/11/03 07:09:55;;;;;;;18.30;14.10;;;;;;;7.34;95.73;96566.05;108186;1267;60116;-88
2023/11/03 07:12:22;;;;;;;12.30;10.70;;;;;;;7.35;95.92;96562.02;108371;1267;73887;-91
2023/11/03 07:14:49;;;;;;;11.80;9.90;;;;;;;7.38;95.58;96567.64;108303;1267;73954;-88
2023/11/03 07:17:17;;;;;;;14.00;11.70;;;;;;;7.42;95.43;96568.72;108265;1262;72476;-87
2023/11/03 07:19:44;;;;;;;12.20;10.90;;;;;;;7.47;95.64;96568.17;108497;1262;61223;-87
2023/11/03 07:22:15;;;;;;;11.00;9.90;;;;;;;7.54;95.73;96562.77;108439;1263;60752;-90
2023/11/03 07:24:44;;;;;;;11.30;9.50;;;;;;;7.61;95.81;96552.52;108505;1261;73916;-89
2023/11/03 07:27:12;;;;;;;16.90;11.10;;;;;;;7.69;95.52;96554.64;108298;1262;74645;-88
2023/11/03 07:29:45;;;;;;;;;;;;;;;7.79;95.08;96560.88;108504;1262;71792;-87
2023/11/03 07:32:12;;;;;;;9.90;8.50;;;;;;;7.87;94.37;96555.77;108565;1262;60817;-87
2023/11/03 07:34:42;;;;;;;13.40;8.60;;;;;;;7.94;93.20;96548.90;108449;1262;60109;-88
2023/11/03 07:37:10;;;;;;;9.40;8.40;;;;;;;8.01;92.69;96547.60;108400;1262;75377;-87
2023/11/03 07:39:39;;;;;;;10.50;9.40;;;;;;;8.07;92.31;96556.69;108416;1262;97230;-86
2023/11/03 07:42:06;;;;;;;13.30;9.60;;;;;;;8.15;91.90;96557.38;108490;1262;70735;-88
2023/11/03 07:44:33;;;;;;;9.50;8.60;;;;;;;8.22;91.36;96551.97;108528;1262;59926;-87
2023/11/03 07:47:02;;;;;;;9.60;8.60;;;;;;;8.28;90.97;96555.16;108419;1262;59498;-87
2023/11/03 07:49:44;;;;;;;9.10;8.10;;;;;;;8.37;90.60;96552.48;108489;1262;73962;-88
2023/11/03 07:52:13;;;;;;;10.40;9.10;;;;;;;8.44;89.83;96548.65;108070;1262;73159;-89
2023/11/03 07:54:40;;;;;;;10.20;8.20;;;;;;;8.51;89.66;96534.85;108388;1262;71729;-88
2023/11/03 07:57:08;;;;;;;11.90;7.60;;;;;;;8.58;89.56;96526.45;108588;1262;59610;-89
2023/11/03 07:59:35;;;;;;;9.90;8.50;;;;;;;8.66;88.84;96524.34;108388;1262;60183;-88
2023/11/03 08:02:03;;;;;;;9.20;8.30;;;;;;;8.73;87.92;96514.60;108388;1262;73798;-87
2023/11/03 08:04:30;;;;;;;8.50;7.60;;;;;;;8.80;87.54;96513.61;108324;1262;74141;-87
2023/11/03 08:06:57;;;;;;;12.50;8.80;;;;;;;8.86;87.04;96514.63;108494;1262;73518;-87
2023/11/03 08:09:27;;;;;;;9.40;8.00;;;;;;;8.92;86.68;96509.96;108385;1262;63079;-86
2023/11/03 08:11:55;;;;;;;10.40;7.30;;;;;;;8.97;86.07;96517.73;108410;1262;59531;-87
2023/11/03 08:14:22;;;;;;;10.40;8.00;;;;;;;9.01;85.57;96521.52;108287;1262;72670;-87
2023/11/03 08:16:50;;;;;;;9.90;8.40;;;;;;;9.04;85.66;96520.64;108398;1262;75296;-87
2023/11/03 08:19:20;;;;;;;9.50;8.10;;;;;;;9.10;86.18;96515.98;108510;1262;72382;-87
2023/11/03 08:21:48;;;;;;;9.50;8.00;;;;;;;9.18;86.28;96519.73;108402;1262;61889;-88
2023/11/03 08:24:15;;;;;;;8.00;7.00;;;;;;;9.25;86.30;96525.70;108447;1262;60179;-88
2023/11/03 08:26:43;;;;;;;10.80;7.30;;;;;;;9.32;85.79;96516.05;108557;1262;72560;-88
2023/11/03 08:29:10;;;;;;;7.00;6.10;;;;;;;9.40;85.51;96507.65;108684;1262;75583;-87
2023/11/03 08:31:46;;;;;;;8.80;7.60;;;;;;;9.50;84.85;96514.65;108413;1262;72645;-87
2023/11/03 08:34:17;;;;;;;10.50;6.60;;;;;;;9.58;84.87;96503.67;108414;1262;61622;-88
2023/11/03 08:36:46;;;;;;;7.80;7.00;;;;;;;9.68;84.47;96496.07;108335;1262;59449;-88
2023/11/03 08:39:13;;;;;;;9.00;7.70;;;;;;;9.78;83.46;96492.81;108545;1262;74008;-87
2023/11/03 08:41:56;;;;;;;7.30;6.60;;;;;;;9.89;83.28;96488.71;108295;1262;73795;-87
2023/11/03 08:44:23;;;;;;;6.90;6.20;;;;;;;9.99;82.93;96490.42;108709;1262;70583;-87
2023/11/03 08:46:51;;;;;;;9.40;6.20;;;;;;;10.08;82.30;96491.30;108701;1264;62029;-88
2023/11/03 08:49:19;;;;;;;8.20;6.30;;;;;;;10.18;81.29;96499.45;108781;1261;59108;-87
2023/11/03 08:51:46;;;;;;;6.50;5.90;;;;;;;10.26;80.85;96508.53;108705;1262;73409;-87
2023/11/03 08:54:14;;;;;;;7.20;6.00;;;;;;;10.33;80.48;96506.61;108410;1262;75229;-88
2023/11/03 08:56:42;;;;;;;7.50;6.20;;;;;;;10.40;80.66;96499.99;108703;1262;72364;-86
2023/11/03 08:59:09;;;;;;;9.00;7.40;;;;;;;10.48;80.42;96492.42;108792;1262;62835;-87
2023/11/03 09:01:36;;;;;;;8.40;6.00;;;;;;;10.57;80.15;96494.83;108646;1261;59802;-88
2023/11/03 09:04:06;;;;;;;8.90;8.00;;;;;;;10.66;80.30;96479.41;108225;1262;74978;-88
2023/11/03 09:06:34;;;;;;;6.70;6.00;;;;;;;10.76;80.48;96473.16;108203;1264;76491;-88
2023/11/03 09:09:03;;;;;;;9.50;7.90;;;;;;;10.87;80.44;96470.42;108425;1262;71671;-89
2023/11/03 09:11:32;;;;;;;8.20;5.90;;;;;;;10.98;80.13;96456.64;108690;1263;61085;-87
2023/11/03 09:14:02;;;;;;;9.70;5.90;;;;;;;11.07;79.41;96446.77;108506;1262;59227;-88
2023/11/03 09:16:29;;;;;;;6.10;5.30;;;;;;;11.15;78.63;96443.62;108480;1262;73617;-86
2023/11/03 09:18:57;;;;;;;7.60;6.60;;;;;;;11.21;78.54;96439.77;108198;1261;76129;-85
2023/11/03 09:21:28;;;;;;;6.50;5.70;;;;;;;11.28;78.89;96432.50;108594;1261;73473;-85
2023/11/03 09:23:58;;;;;;;9.90;6.50;;;;;;;11.33;78.75;96423.38;108224;1261;62503;-86
2023/11/03 09:26:25;;;;;;;9.40;6.00;;;;;;;11.38;78.94;96417.02;108456;1265;61042;-86
2023/11/03 09:28:56;;;;;;;6.60;5.80;;;;;;;11.45;78.91;96417.42;108629;1262;72967;-90
2023/11/03 09:31:33;;;;;;;7.30;6.00;;;;;;;11.51;78.67;96414.84;108538;1262;74197;-89
2023/11/03 09:34:15;;;;;;;;;;;;;;;;;;;;;
2023/11/03 09:36:46;;;;;;;6.90;6.20;;;;;;;11.63;79.21;96393.74;108333;1262;61277;-88
2023/11/03 09:44:15;;;;;;;14.80;9.20;;;;;;;11.80;77.30;96380.39;107331;1274;72608;-92
2023/11/03 09:55:45;;;;;;;9.00;6.00;;;;;;;12.07;74.61;96378.88;107600;1267;63902;-91
2023/11/03 10:04:10;;;;;;;8.70;6.20;;;;;;;12.23;72.69;96359.17;107246;1276;72970;-92
2023/11/03 10:06:54;;;;;;;6.50;5.10;;;;;;;12.26;71.91;96354.08;107077;1276;74404;-92
2023/11/03 10:09:34;;;;;;;5.50;5.00;;;;;;;12.33;71.78;96338.37;107177;1276;74453;-86
2023/11/03 10:12:03;;;;;;;9.50;6.60;;;;;;;12.39;71.86;96325.17;107134;1277;62192;-85
2023/11/03 10:14:31;;;;;;;18.80;8.50;;;;;;;12.46;71.35;96326.11;107284;1276;60431;-84
2023/11/03 10:16:58;;;;;;;11.00;8.10;;;;;;;12.55;71.37;96324.94;107374;1276;74567;-86
2023/11/03 10:19:25;;;;;;;10.80;6.00;;;;;;;12.68;70.46;96317.61;107150;1277;74539;-85
2023/11/03 10:21:53;;;;;;;8.00;4.90;;;;;;;12.81;69.27;96304.32;107016;1276;73398;-86
2023/11/03 10:24:23;;;;;;;6.00;4.30;;;;;;;12.93;68.61;96303.52;106853;1276;59475;-85
2023/11/03 10:26:53;;;;;;;5.20;4.70;;;;;;;13.08;68.38;96313.14;107215;1277;59662;-86
2023/11/03 10:29:21;;;;;;;5.20;4.70;;;;;;;13.23;68.16;96312.17;107609;1275;72816;-90
2023/11/03 10:31:49;;;;;;;6.50;5.50;;;;;;;13.37;67.53;96312.42;107551;1276;75284;-88
2023/11/03 10:34:19;;;;;;;8.60;4.90;;;;;;;13.49;66.63;96302.09;107619;1276;72489;-86
2023/11/03 10:37:00;;;;;;;;;;;;;;;;;;;;;
2023/11/03 10:39:45;;;;;;;6.60;5.00;;;;;;;13.66;66.09;96296.50;107615;1271;60031;-90
2023/11/03 10:42:18;;;;;;;6.30;4.70;;;;;;;13.71;65.62;96287.85;107888;1271;75749;-91
2023/11/03 10:44:49;;;;;;;5.50;4.40;;;;;;;13.73;64.88;96283.08;107471;1271;76271;-91
2023/11/03 10:47:23;;;;;;;7.60;4.70;;;;;;;13.70;63.95;96277.86;107739;1271;75404;-92
2023/11/03 10:50:05;;;;;;;6.30;5.20;;;;;;;13.65;64.02;96269.11;107461;1272;60218;-88
2023/11/03 10:52:49;;;;;;;4.40;4.00;;;;;;;13.61;64.37;96268.52;107814;1271;60368;-89
2023/11/03 10:55:35;;;;;;;6.70;4.50;;;;;;;13.58;64.79;96257.69;107822;1271;72929;-90
2023/11/03 10:58:17;;;;;;;11.50;6.20;;;;;;;13.54;64.57;96235.36;108033;1271;73888;-85
2023/11/03 11:00:52;;;;;;;8.20;4.40;;;;;;;13.51;65.00;96234.84;107545;1271;74280;-86
2023/11/03 11:03:50;;;;;;;5.30;4.40;;;;;;;13.49;65.78;96229.48;107799;1271;61159;-90
2023/11/03 11:06:28;;;;;;;6.60;5.20;;;;;;;13.47;65.39;96228.86;108220;1271;59216;-88
2023/11/03 11:12:03;;;;;;;5.70;5.00;;;;;;;13.48;65.65;96223.13;108174;1273;73604;-89
2023/11/03 11:15:05;;;;;;;;;;;;;;;;;;;;;
2023/11/03 11:19:00;;;;;;;10.30;5.10;;;;;;;13.62;64.46;96200.31;107802;1273;59666;-90
2023/11/03 11:21:34;;;;;;;8.40;5.70;;;;;;;13.72;64.70;96196.36;107457;1272;61290;-90
2023/11/03 11:24:02;;;;;;;12.40;6.60;;;;;;;13.90;64.39;96188.23;107565;1276;74492;-89
2023/11/03 11:26:31;;;;;;;8.00;6.30;;;;;;;14.08;64.00;96172.71;107651;1271;74220;-89
2023/11/03 11:29:03;;;;;;;10.20;6.60;;;;;;;14.31;63.63;96160.98;107568;1272;71680;-90
2023/11/03 11:31:38;;;;;;;7.80;5.00;;;;;;;14.52;62.81;96144.77;107594;1273;61416;-89
2023/11/03 11:34:12;;;;;;;6.70;4.70;;;;;;;14.73;62.36;96145.14;107653;1273;59430;-89
2023/11/03 11:36:41;;;;;;;6.80;4.80;;;;;;;14.91;61.66;96140.88;107804;1273;74181;-89
2023/11/03 11:39:17;;;;;;;6.70;5.20;;;;;;;15.00;60.95;96139.67;107670;1271;75387;-89
2023/11/03 11:42:17;;;;;;;8.10;5.20;;;;;;;15.05;60.73;96149.47;107555;1273;74954;-91
2023/11/03 11:45:29;;;;;;;14.20;10.20;;;;;;;15.04;60.78;96143.70;106881;1280;60727;-90
2023/11/03 11:48:31;;;;;;;17.10;6.90;;;;;;;14.95;60.73;96152.33;106974;1279;59299;-89
2023/11/03 11:51:43;;;;;;;9.60;5.20;;;;;;;14.86;61.18;96154.54;106914;1280;73098;-90
2023/11/03 12:00:26;;;;;;;;;;;;;;;;;;;;;
2023/11/03 12:10:34;;;;;;;19.40;6.00;;;;;;;14.21;64.33;96118.75;107637;1273;73176;-87
2023/11/03 12:13:55;;;;;;;8.10;5.70;;;;;;;14.13;65.03;96123.08;107425;1273;75066;-90
2023/11/03 12:16:46;;;;;;;9.30;6.30;;;;;;;14.01;65.56;96134.85;106888;1273;74788;-90